sensor_id;sensor_type;location;lat;lon;timestamp;pressure;altitude;pressure_sealevel;temperature;humidity
15056;BME280;7626;42.674;23.284;2023-12-20T15:42:17;94233.59;;;18.83;64.88
15056;BME280;7626;42.674;23.284;2023-12-20T15:47:34;94248.25;;;10.52;58.84
15056;BME280;7626;42.674;23.284;2023-12-20T15:50:02;94235.66;;;9.72;70.07
15056;BME280;7626;42.674;23.284;2023-12-20T15:52:29;94236.66;;;9.05;67.95
15056;BME280;7626;42.674;23.284;2023-12-20T15:54:56;94232.91;;;8.53;69.06
15056;BME280;7626;42.674;23.284;2023-12-20T15:57:23;94235.16;;;8.22;70.29
15056;BME280;7626;42.674;23.284;2023-12-20T15:59:50;94235.72;;;8.03;70.87
15056;BME280;7626;42.674;23.284;2023-12-20T16:02:17;94248.81;;;7.88;70.38
15056;BME280;7626;42.674;23.284;2023-12-20T16:04:45;94231.50;;;7.78;69.72
15056;BME280;7626;42.674;23.284;2023-12-20T16:07:12;94239.47;;;7.74;69.99
15056;BME280;7626;42.674;23.284;2023-12-20T16:09:39;94242.63;;;7.67;69.42
15056;BME280;7626;42.674;23.284;2023-12-20T16:12:07;94245.31;;;7.65;69.09
15056;BME280;7626;42.674;23.284;2023-12-20T16:14:34;94237.78;;;7.62;68.81
15056;BME280;7626;42.674;23.284;2023-12-20T16:17:01;94240.47;;;7.61;69.56
15056;BME280;7626;42.674;23.284;2023-12-20T16:19:28;94223.59;;;7.57;68.80
15056;BME280;7626;42.674;23.284;2023-12-20T16:21:56;94230.38;;;7.58;69.07
15056;BME280;7626;42.674;23.284;2023-12-20T16:24:23;94231.19;;;7.58;69.15
15056;BME280;7626;42.674;23.284;2023-12-20T16:26:50;94228.97;;;7.53;68.73
15056;BME280;7626;42.674;23.284;2023-12-20T16:29:17;94218.16;;;7.48;68.70
15056;BME280;7626;42.674;23.284;2023-12-20T16:31:43;94234.88;;;7.43;68.62
15056;BME280;7626;42.674;23.284;2023-12-20T16:34:10;94216.03;;;7.42;68.22
15056;BME280;7626;42.674;23.284;2023-12-20T16:36:49;94232.84;;;7.35;69.15
15056;BME280;7626;42.674;23.284;2023-12-20T16:39:18;94221.50;;;7.37;69.09
15056;BME280;7626;42.674;23.284;2023-12-20T16:41:46;94210.69;;;7.32;68.69
15056;BME280;7626;42.674;23.284;2023-12-20T16:46:23;94205.91;;;8.45;68.60
15056;BME280;7626;42.674;23.284;2023-12-20T16:48:50;94220.25;;;8.25;72.68
15056;BME280;7626;42.674;23.284;2023-12-20T16:51:19;94207.84;;;8.42;73.52
15056;BME280;7626;42.674;23.284;2023-12-20T16:53:46;94212.25;;;8.06;74.27
15056;BME280;7626;42.674;23.284;2023-12-20T16:56:14;94208.22;;;7.90;74.26
15056;BME280;7626;42.674;23.284;2023-12-20T16:58:41;94216.03;;;7.78;74.24
15056;BME280;7626;42.674;23.284;2023-12-20T17:01:10;94206.28;;;7.70;73.82
15056;BME280;7626;42.674;23.284;2023-12-20T17:03:40;94221.16;;;7.66;73.58
15056;BME280;7626;42.674;23.284;2023-12-20T17:06:08;94219.75;;;7.62;72.89
15056;BME280;7626;42.674;23.284;2023-12-20T17:08:36;94214.78;;;7.59;72.43
15056;BME280;7626;42.674;23.284;2023-12-20T17:11:04;94209.59;;;7.48;72.52
15056;BME280;7626;42.674;23.284;2023-12-20T17:13:32;94213.72;;;7.50;72.85
15056;BME280;7626;42.674;23.284;2023-12-20T17:16:03;94218.75;;;7.52;71.56
15056;BME280;7626;42.674;23.284;2023-12-20T17:18:33;94216.41;;;7.49;71.98
15056;BME280;7626;42.674;23.284;2023-12-20T17:21:04;94222.81;;;7.43;71.85
15056;BME280;7626;42.674;23.284;2023-12-20T17:23:33;94216.72;;;7.44;71.64
15056;BME280;7626;42.674;23.284;2023-12-20T17:26:03;94220.34;;;7.42;70.95
15056;BME280;7626;42.674;23.284;2023-12-20T17:28:33;94217.91;;;7.40;71.37
15056;BME280;7626;42.674;23.284;2023-12-20T17:31:08;94224.09;;;7.37;70.77
15056;BME280;7626;42.674;23.284;2023-12-20T17:33:36;94219.84;;;7.36;71.62
15056;BME280;7626;42.674;23.284;2023-12-20T17:36:10;94224.19;;;7.36;71.19
15056;BME280;7626;42.674;23.284;2023-12-20T17:38:39;94229.44;;;7.34;71.06
15056;BME280;7626;42.674;23.284;2023-12-20T17:41:08;94225.22;;;7.33;70.71
15056;BME280;7626;42.674;23.284;2023-12-20T17:43:36;94213.88;;;7.36;70.73
15056;BME280;7626;42.674;23.284;2023-12-20T17:46:03;94224.09;;;7.37;70.08
15056;BME280;7626;42.674;23.284;2023-12-20T17:48:30;94214.09;;;7.33;70.32
15056;BME280;7626;42.674;23.284;2023-12-20T17:50:57;94212.31;;;7.33;70.06
15056;BME280;7626;42.674;23.284;2023-12-20T17:53:26;94220.06;;;7.33;70.49
15056;BME280;7626;42.674;23.284;2023-12-20T17:55:54;94220.91;;;7.34;70.20
15056;BME280;7626;42.674;23.284;2023-12-20T17:58:21;94227.19;;;7.30;70.33
15056;BME280;7626;42.674;23.284;2023-12-20T18:00:48;94229.66;;;7.31;70.23
15056;BME280;7626;42.674;23.284;2023-12-20T18:03:28;94225.69;;;7.27;70.16
15056;BME280;7626;42.674;23.284;2023-12-20T18:05:56;94226.59;;;7.26;70.37
15056;BME280;7626;42.674;23.284;2023-12-20T18:08:24;94226.81;;;7.23;71.11
15056;BME280;7626;42.674;23.284;2023-12-20T18:10:52;94232.81;;;7.24;70.16
15056;BME280;7626;42.674;23.284;2023-12-20T18:13:22;94241.97;;;7.28;70.51
15056;BME280;7626;42.674;23.284;2023-12-20T18:15:49;94231.75;;;7.26;69.84
15056;BME280;7626;42.674;23.284;2023-12-20T18:18:17;94234.44;;;7.25;70.69
15056;BME280;7626;42.674;23.284;2023-12-20T18:20:44;94223.19;;;7.26;70.42
15056;BME280;7626;42.674;23.284;2023-12-20T18:23:12;94233.84;;;7.21;70.50
15056;BME280;7626;42.674;23.284;2023-12-20T18:25:40;94223.63;;;7.19;70.45
15056;BME280;7626;42.674;23.284;2023-12-20T18:28:10;94233.84;;;7.21;70.67
15056;BME280;7626;42.674;23.284;2023-12-20T18:30:38;94237.34;;;7.20;70.49
15056;BME280;7626;42.674;23.284;2023-12-20T18:33:06;94235.59;;;7.21;69.92
15056;BME280;7626;42.674;23.284;2023-12-20T18:35:34;94232.19;;;7.20;70.34
15056;BME280;7626;42.674;23.284;2023-12-20T18:38:04;94238.38;;;7.17;70.57
15056;BME280;7626;42.674;23.284;2023-12-20T18:40:32;94231.25;;;7.21;70.26
15056;BME280;7626;42.674;23.284;2023-12-20T18:42:59;94233.84;;;7.21;70.06
15056;BME280;7626;42.674;23.284;2023-12-20T18:45:30;94221.97;;;7.18;70.37
15056;BME280;7626;42.674;23.284;2023-12-20T18:47:58;94230.34;;;7.22;70.49
15056;BME280;7626;42.674;23.284;2023-12-20T18:50:24;94230.16;;;7.12;70.30
15056;BME280;7626;42.674;23.284;2023-12-20T18:52:51;94229.94;;;7.15;70.42
15056;BME280;7626;42.674;23.284;2023-12-20T18:55:20;94227.97;;;7.19;70.08
15056;BME280;7626;42.674;23.284;2023-12-20T18:57:46;94236.41;;;7.21;69.99
15056;BME280;7626;42.674;23.284;2023-12-20T19:00:15;94233.22;;;7.17;70.38
15056;BME280;7626;42.674;23.284;2023-12-20T19:02:45;94226.41;;;7.16;70.44
15056;BME280;7626;42.674;23.284;2023-12-20T19:05:13;94241.88;;;7.16;69.96
15056;BME280;7626;42.674;23.284;2023-12-20T19:07:40;94229.81;;;7.17;70.47
15056;BME280;7626;42.674;23.284;2023-12-20T19:10:08;94232.38;;;7.17;69.69
15056;BME280;7626;42.674;23.284;2023-12-20T19:12:36;94231.69;;;7.15;70.16
15056;BME280;7626;42.674;23.284;2023-12-20T19:15:03;94234.25;;;7.15;69.52
15056;BME280;7626;42.674;23.284;2023-12-20T19:17:32;94229.31;;;7.12;70.10
15056;BME280;7626;42.674;23.284;2023-12-20T19:20:01;94236.13;;;7.13;70.12
15056;BME280;7626;42.674;23.284;2023-12-20T19:22:31;94236.94;;;7.13;69.28
15056;BME280;7626;42.674;23.284;2023-12-20T19:25:01;94245.72;;;7.11;69.74
15056;BME280;7626;42.674;23.284;2023-12-20T19:27:32;94232.25;;;7.07;69.41
15056;BME280;7626;42.674;23.284;2023-12-20T19:30:02;94240.91;;;7.06;69.18
15056;BME280;7626;42.674;23.284;2023-12-20T19:32:30;94232.25;;;7.07;69.57
15056;BME280;7626;42.674;23.284;2023-12-20T19:34:58;94233.75;;;7.10;69.37
15056;BME280;7626;42.674;23.284;2023-12-20T19:37:30;94232.84;;;7.11;69.33
15056;BME280;7626;42.674;23.284;2023-12-20T19:40:08;94225.22;;;7.09;69.80
15056;BME280;7626;42.674;23.284;2023-12-20T19:42:39;94225.00;;;7.12;69.21
15056;BME280;7626;42.674;23.284;2023-12-20T19:45:09;94232.00;;;7.10;69.38
15056;BME280;7626;42.674;23.284;2023-12-20T19:47:38;94229.53;;;7.09;70.21
15056;BME280;7626;42.674;23.284;2023-12-20T19:50:07;94232.84;;;7.11;69.88
15056;BME280;7626;42.674;23.284;2023-12-20T19:52:40;94228.50;;;7.11;69.52
15056;BME280;7626;42.674;23.284;2023-12-20T19:55:08;94223.34;;;7.11;70.12
15056;BME280;7626;42.674;23.284;2023-12-20T19:57:36;94225.00;;;7.12;70.04
15056;BME280;7626;42.674;23.284;2023-12-20T20:00:08;94229.53;;;7.09;69.88
15056;BME280;7626;42.674;23.284;2023-12-20T20:02:36;94237.25;;;7.09;69.91
15056;BME280;7626;42.674;23.284;2023-12-20T20:05:06;94228.59;;;7.10;69.76
15056;BME280;7626;42.674;23.284;2023-12-20T20:07:36;94225.31;;;7.08;69.78
15056;BME280;7626;42.674;23.284;2023-12-20T20:10:04;94228.72;;;7.08;69.91
15056;BME280;7626;42.674;23.284;2023-12-20T20:12:33;94227.91;;;7.08;69.10
15056;BME280;7626;42.674;23.284;2023-12-20T20:15:05;94217.81;;;7.05;69.70
15056;BME280;7626;42.674;23.284;2023-12-20T20:17:33;94228.13;;;7.05;69.74
15056;BME280;7626;42.674;23.284;2023-12-20T20:20:02;94220.28;;;7.06;69.34
15056;BME280;7626;42.674;23.284;2023-12-20T20:22:31;94226.44;;;7.04;69.14
15056;BME280;7626;42.674;23.284;2023-12-20T20:25:01;94221.19;;;7.05;70.17
15056;BME280;7626;42.674;23.284;2023-12-20T20:27:30;94223.06;;;7.03;70.13
15056;BME280;7626;42.674;23.284;2023-12-20T20:30:02;94228.94;;;7.05;70.05
15056;BME280;7626;42.674;23.284;2023-12-20T20:32:29;94228.22;;;7.03;70.25
15056;BME280;7626;42.674;23.284;2023-12-20T20:34:57;94218.00;;;7.02;70.24
15056;BME280;7626;42.674;23.284;2023-12-20T20:37:24;94216.88;;;7.06;69.55
15056;BME280;7626;42.674;23.284;2023-12-20T20:39:51;94217.81;;;7.05;69.92
15056;BME280;7626;42.674;23.284;2023-12-20T20:42:22;94215.13;;;7.06;69.67
15056;BME280;7626;42.674;23.284;2023-12-20T20:44:48;94214.41;;;7.04;69.29
15056;BME280;7626;42.674;23.284;2023-12-20T20:47:19;94210.19;;;7.03;69.74
15056;BME280;7626;42.674;23.284;2023-12-20T20:49:46;94220.50;;;7.03;70.05
15056;BME280;7626;42.674;23.284;2023-12-20T20:52:14;94222.84;;;7.06;69.63
15056;BME280;7626;42.674;23.284;2023-12-20T20:54:41;94212.66;;;7.05;69.71
15056;BME280;7626;42.674;23.284;2023-12-20T20:57:09;94212.66;;;7.05;69.24
15056;BME280;7626;42.674;23.284;2023-12-20T20:59:37;94214.53;;;7.03;69.23
15056;BME280;7626;42.674;23.284;2023-12-20T21:02:08;94208.53;;;7.02;69.24
15056;BME280;7626;42.674;23.284;2023-12-20T21:04:38;94218.81;;;7.02;69.17
15056;BME280;7626;42.674;23.284;2023-12-20T21:07:06;94220.38;;;7.05;69.30
15056;BME280;7626;42.674;23.284;2023-12-20T21:09:35;94224.50;;;7.07;69.60
15056;BME280;7626;42.674;23.284;2023-12-20T21:12:04;94224.63;;;7.06;69.16
15056;BME280;7626;42.674;23.284;2023-12-20T21:14:31;94235.25;;;7.01;69.44
15056;BME280;7626;42.674;23.284;2023-12-20T21:17:00;94232.56;;;7.03;69.40
15056;BME280;7626;42.674;23.284;2023-12-20T21:19:28;94241.00;;;7.05;68.99
15056;BME280;7626;42.674;23.284;2023-12-20T21:21:56;94242.13;;;7.00;69.29
15056;BME280;7626;42.674;23.284;2023-12-20T21:24:25;94244.72;;;7.00;69.11
15056;BME280;7626;42.674;23.284;2023-12-20T21:26:55;94242.25;;;6.99;69.19
15056;BME280;7626;42.674;23.284;2023-12-20T21:29:22;94253.28;;;7.01;68.74
15056;BME280;7626;42.674;23.284;2023-12-20T21:31:50;94252.56;;;6.99;68.93
15056;BME280;7626;42.674;23.284;2023-12-20T21:34:20;94254.91;;;7.02;68.39
15056;BME280;7626;42.674;23.284;2023-12-20T21:36:49;94245.34;;;7.04;68.70
15056;BME280;7626;42.674;23.284;2023-12-20T21:39:17;94235.25;;;7.01;68.68
15056;BME280;7626;42.674;23.284;2023-12-20T21:41:49;94235.34;;;6.99;68.22
15056;BME280;7626;42.674;23.284;2023-12-20T21:44:18;94238.44;;;6.92;68.31
15056;BME280;7626;42.674;23.284;2023-12-20T21:46:46;94228.03;;;6.93;68.19
15056;BME280;7626;42.674;23.284;2023-12-20T21:49:14;94231.66;;;6.91;68.34
15056;BME280;7626;42.674;23.284;2023-12-20T21:51:45;94236.59;;;6.94;68.39
15056;BME280;7626;42.674;23.284;2023-12-20T21:54:13;94224.53;;;6.94;68.28
15056;BME280;7626;42.674;23.284;2023-12-20T21:56:41;94222.66;;;6.96;68.15
15056;BME280;7626;42.674;23.284;2023-12-20T21:59:10;94226.91;;;6.97;67.76
15056;BME280;7626;42.674;23.284;2023-12-20T22:01:40;94224.44;;;6.96;67.94
15056;BME280;7626;42.674;23.284;2023-12-20T22:04:09;94220.31;;;6.93;68.42
15056;BME280;7626;42.674;23.284;2023-12-20T22:06:37;94218.66;;;6.92;68.34
15056;BME280;7626;42.674;23.284;2023-12-20T22:09:07;94215.88;;;6.95;68.00
15056;BME280;7626;42.674;23.284;2023-12-20T22:11:36;94221.22;;;6.92;68.26
15056;BME280;7626;42.674;23.284;2023-12-20T22:14:04;94216.22;;;6.91;67.67
15056;BME280;7626;42.674;23.284;2023-12-20T22:16:32;94216.06;;;6.92;67.77
15056;BME280;7626;42.674;23.284;2023-12-20T22:19:03;94211.88;;;6.91;67.97
15056;BME280;7626;42.674;23.284;2023-12-20T22:21:32;94210.81;;;6.94;68.25
15056;BME280;7626;42.674;23.284;2023-12-20T22:24:00;94204.84;;;6.93;67.59
15056;BME280;7626;42.674;23.284;2023-12-20T22:26:29;94195.34;;;6.94;68.18
15056;BME280;7626;42.674;23.284;2023-12-20T22:28:58;94196.31;;;6.93;68.55
15056;BME280;7626;42.674;23.284;2023-12-20T22:31:26;94203.09;;;6.94;68.06
15056;BME280;7626;42.674;23.284;2023-12-20T22:33:55;94203.94;;;6.94;67.87
15056;BME280;7626;42.674;23.284;2023-12-20T22:36:26;94200.50;;;6.94;67.96
15056;BME280;7626;42.674;23.284;2023-12-20T22:38:55;94199.69;;;6.93;67.92
15056;BME280;7626;42.674;23.284;2023-12-20T22:41:24;94201.47;;;6.93;67.41
15056;BME280;7626;42.674;23.284;2023-12-20T22:43:52;94196.31;;;6.93;68.29
15056;BME280;7626;42.674;23.284;2023-12-20T22:46:28;94202.25;;;6.93;68.02
15056;BME280;7626;42.674;23.284;2023-12-20T22:48:57;94209.19;;;6.93;67.77
15056;BME280;7626;42.674;23.284;2023-12-20T22:51:25;94203.94;;;6.94;68.15
15056;BME280;7626;42.674;23.284;2023-12-20T22:53:55;94195.47;;;6.92;68.02
15056;BME280;7626;42.674;23.284;2023-12-20T22:56:23;94201.47;;;6.93;67.84
15056;BME280;7626;42.674;23.284;2023-12-20T22:58:58;94202.47;;;6.90;68.47
15056;BME280;7626;42.674;23.284;2023-12-20T23:01:26;94203.19;;;6.92;68.53
15056;BME280;7626;42.674;23.284;2023-12-20T23:03:54;94202.59;;;6.89;67.39
15056;BME280;7626;42.674;23.284;2023-12-20T23:06:22;94206.09;;;6.88;67.64
15056;BME280;7626;42.674;23.284;2023-12-20T23:08:53;94194.84;;;6.89;67.53
15056;BME280;7626;42.674;23.284;2023-12-20T23:11:24;94196.63;;;6.88;67.09
15056;BME280;7626;42.674;23.284;2023-12-20T23:13:54;94194.25;;;6.85;67.37
15056;BME280;7626;42.674;23.284;2023-12-20T23:16:22;94197.75;;;6.84;67.33
15056;BME280;7626;42.674;23.284;2023-12-20T23:18:50;94186.63;;;6.84;66.57
15056;BME280;7626;42.674;23.284;2023-12-20T23:21:19;94203.13;;;6.81;67.11
15056;BME280;7626;42.674;23.284;2023-12-20T23:23:47;94198.91;;;6.80;66.84
15056;BME280;7626;42.674;23.284;2023-12-20T23:26:15;94197.03;;;6.82;67.00
15056;BME280;7626;42.674;23.284;2023-12-20T23:28:43;94179.97;;;6.81;66.62
15056;BME280;7626;42.674;23.284;2023-12-20T23:31:22;94190.69;;;6.75;65.91
15056;BME280;7626;42.674;23.284;2023-12-20T23:33:51;94187.03;;;6.77;66.60
15056;BME280;7626;42.674;23.284;2023-12-20T23:36:19;94179.66;;;6.73;66.05
15056;BME280;7626;42.674;23.284;2023-12-20T23:38:47;94179.78;;;6.71;66.41
15056;BME280;7626;42.674;23.284;2023-12-20T23:41:15;94178.13;;;6.70;66.24
15056;BME280;7626;42.674;23.284;2023-12-20T23:43:43;94171.94;;;6.73;65.69
15056;BME280;7626;42.674;23.284;2023-12-20T23:46:13;94170.06;;;6.75;65.26
15056;BME280;7626;42.674;23.284;2023-12-20T23:48:41;94170.38;;;6.70;65.20
15056;BME280;7626;42.674;23.284;2023-12-20T23:51:09;94170.28;;;6.72;65.34
15056;BME280;7626;42.674;23.284;2023-12-20T23:53:37;94180.28;;;6.63;65.70
15056;BME280;7626;42.674;23.284;2023-12-20T23:56:06;94184.84;;;6.60;65.99
15056;BME280;7626;42.674;23.284;2023-12-20T23:58:34;94182.47;;;6.57;65.35
